sensor_id;sensor_type;location;lat;lon;timestamp;P1;durP1;ratioP1;P2;durP2;ratioP2
48795;SDS011;34607;48.520;-1.330;2024-02-21T08:48:44;9.15;;;4.93;;
48795;SDS011;34607;48.520;-1.330;2024-02-21T08:51:12;6.80;;;4.43;;
48795;SDS011;34607;48.520;-1.330;2024-02-21T08:53:39;8.88;;;4.88;;
48795;SDS011;34607;48.520;-1.330;2024-02-21T08:56:06;7.50;;;5.03;;
48795;SDS011;34607;48.520;-1.330;2024-02-21T08:58:34;7.07;;;4.05;;
48795;SDS011;34607;48.520;-1.330;2024-02-21T09:01:03;6.05;;;4.20;;
48795;SDS011;34607;48.520;-1.330;2024-02-21T09:03:31;9.00;;;4.20;;
48795;SDS011;34607;48.520;-1.330;2024-02-21T09:06:00;6.88;;;4.25;;
48795;SDS011;34607;48.520;-1.330;2024-02-21T09:08:27;5.28;;;3.80;;
48795;SDS011;34607;48.520;-1.330;2024-02-21T09:10:54;8.15;;;3.88;;
48795;SDS011;34607;48.520;-1.330;2024-02-21T09:13:21;6.00;;;3.92;;
48795;SDS011;34607;48.520;-1.330;2024-02-21T09:15:49;6.68;;;3.80;;
48795;SDS011;34607;48.520;-1.330;2024-02-21T09:18:16;7.25;;;4.13;;
48795;SDS011;34607;48.520;-1.330;2024-02-21T09:20:43;6.22;;;3.92;;
48795;SDS011;34607;48.520;-1.330;2024-02-21T09:23:11;5.05;;;4.28;;
48795;SDS011;34607;48.520;-1.330;2024-02-21T09:25:38;9.25;;;4.47;;
48795;SDS011;34607;48.520;-1.330;2024-02-21T09:28:06;6.45;;;3.90;;
48795;SDS011;34607;48.520;-1.330;2024-02-21T09:30:33;4.82;;;3.65;;
48795;SDS011;34607;48.520;-1.330;2024-02-21T09:33:00;5.18;;;3.47;;
48795;SDS011;34607;48.520;-1.330;2024-02-21T09:35:27;6.97;;;3.95;;
48795;SDS011;34607;48.520;-1.330;2024-02-21T09:37:54;5.22;;;3.53;;
48795;SDS011;34607;48.520;-1.330;2024-02-21T09:40:23;6.25;;;3.95;;
48795;SDS011;34607;48.520;-1.330;2024-02-21T09:42:53;8.63;;;3.90;;
48795;SDS011;34607;48.520;-1.330;2024-02-21T09:45:29;6.32;;;4.40;;
48795;SDS011;34607;48.520;-1.330;2024-02-21T09:48:06;4.30;;;3.90;;
48795;SDS011;34607;48.520;-1.330;2024-02-21T09:50:47;8.77;;;3.83;;
48795;SDS011;34607;48.520;-1.330;2024-02-21T09:53:16;6.50;;;4.20;;
48795;SDS011;34607;48.520;-1.330;2024-02-21T09:55:47;6.10;;;4.43;;
48795;SDS011;34607;48.520;-1.330;2024-02-21T09:58:15;8.45;;;4.38;;
48795;SDS011;34607;48.520;-1.330;2024-02-21T10:00:42;7.43;;;4.63;;
48795;SDS011;34607;48.520;-1.330;2024-02-21T10:03:09;6.00;;;4.10;;
48795;SDS011;34607;48.520;-1.330;2024-02-21T10:05:37;7.93;;;4.45;;
48795;SDS011;34607;48.520;-1.330;2024-02-21T10:08:04;9.23;;;4.53;;
48795;SDS011;34607;48.520;-1.330;2024-02-21T10:10:40;6.60;;;4.35;;
48795;SDS011;34607;48.520;-1.330;2024-02-21T10:13:10;11.07;;;4.72;;
48795;SDS011;34607;48.520;-1.330;2024-02-21T10:15:59;7.82;;;4.75;;
48795;SDS011;34607;48.520;-1.330;2024-02-21T10:18:27;7.82;;;4.95;;
48795;SDS011;34607;48.520;-1.330;2024-02-21T10:20:59;10.85;;;5.10;;
48795;SDS011;34607;48.520;-1.330;2024-02-21T10:23:27;9.50;;;4.77;;
48795;SDS011;34607;48.520;-1.330;2024-02-21T10:26:04;12.05;;;5.03;;
48795;SDS011;34607;48.520;-1.330;2024-02-21T10:28:33;10.65;;;4.15;;
48795;SDS011;34607;48.520;-1.330;2024-02-21T10:31:00;7.88;;;5.22;;
48795;SDS011;34607;48.520;-1.330;2024-02-21T10:33:27;8.60;;;5.10;;
48795;SDS011;34607;48.520;-1.330;2024-02-21T10:36:05;8.23;;;4.30;;
48795;SDS011;34607;48.520;-1.330;2024-02-21T10:38:34;8.50;;;4.90;;
48795;SDS011;34607;48.520;-1.330;2024-02-21T10:41:02;8.95;;;4.75;;
48795;SDS011;34607;48.520;-1.330;2024-02-21T10:43:34;7.65;;;4.82;;
48795;SDS011;34607;48.520;-1.330;2024-02-21T10:46:08;9.15;;;5.30;;
48795;SDS011;34607;48.520;-1.330;2024-02-21T10:48:46;9.57;;;5.32;;
48795;SDS011;34607;48.520;-1.330;2024-02-21T10:51:16;7.65;;;4.80;;
48795;SDS011;34607;48.520;-1.330;2024-02-21T10:53:45;7.50;;;5.38;;
48795;SDS011;34607;48.520;-1.330;2024-02-21T10:56:21;7.05;;;4.75;;
48795;SDS011;34607;48.520;-1.330;2024-02-21T10:58:52;5.82;;;3.45;;
48795;SDS011;34607;48.520;-1.330;2024-02-21T11:01:19;11.43;;;4.70;;
48795;SDS011;34607;48.520;-1.330;2024-02-21T11:03:47;7.30;;;4.68;;
48795;SDS011;34607;48.520;-1.330;2024-02-21T11:06:16;13.50;;;5.70;;
48795;SDS011;34607;48.520;-1.330;2024-02-21T11:08:46;10.48;;;4.90;;
48795;SDS011;34607;48.520;-1.330;2024-02-21T11:11:14;9.23;;;4.45;;
48795;SDS011;34607;48.520;-1.330;2024-02-21T11:13:44;7.95;;;4.28;;
48795;SDS011;34607;48.520;-1.330;2024-02-21T11:16:21;8.18;;;4.55;;
48795;SDS011;34607;48.520;-1.330;2024-02-21T11:18:49;9.77;;;4.63;;
48795;SDS011;34607;48.520;-1.330;2024-02-21T11:21:16;8.55;;;4.40;;
48795;SDS011;34607;48.520;-1.330;2024-02-21T11:23:43;6.30;;;4.38;;
48795;SDS011;34607;48.520;-1.330;2024-02-21T11:26:10;5.93;;;4.18;;
48795;SDS011;34607;48.520;-1.330;2024-02-21T11:28:55;11.77;;;4.40;;
48795;SDS011;34607;48.520;-1.330;2024-02-21T11:31:24;5.10;;;3.30;;
48795;SDS011;34607;48.520;-1.330;2024-02-21T11:33:52;7.93;;;4.18;;
48795;SDS011;34607;48.520;-1.330;2024-02-21T11:36:24;7.47;;;4.10;;
48795;SDS011;34607;48.520;-1.330;2024-02-21T11:38:52;10.75;;;3.72;;
48795;SDS011;34607;48.520;-1.330;2024-02-21T11:41:19;6.85;;;3.90;;
48795;SDS011;34607;48.520;-1.330;2024-02-21T11:43:48;6.72;;;3.40;;
48795;SDS011;34607;48.520;-1.330;2024-02-21T11:46:16;6.55;;;3.30;;
48795;SDS011;34607;48.520;-1.330;2024-02-21T11:48:45;6.10;;;3.53;;
48795;SDS011;34607;48.520;-1.330;2024-02-21T11:51:24;7.38;;;4.13;;
48795;SDS011;34607;48.520;-1.330;2024-02-21T11:53:52;7.57;;;3.78;;
48795;SDS011;34607;48.520;-1.330;2024-02-21T11:56:19;9.18;;;3.05;;
48795;SDS011;34607;48.520;-1.330;2024-02-21T11:58:48;10.40;;;3.60;;
48795;SDS011;34607;48.520;-1.330;2024-02-21T12:01:15;5.55;;;3.38;;
48795;SDS011;34607;48.520;-1.330;2024-02-21T12:03:42;6.93;;;3.35;;
48795;SDS011;34607;48.520;-1.330;2024-02-21T12:06:16;8.90;;;3.47;;
48795;SDS011;34607;48.520;-1.330;2024-02-21T12:08:46;6.68;;;3.40;;
48795;SDS011;34607;48.520;-1.330;2024-02-21T12:11:18;7.75;;;3.30;;
48795;SDS011;34607;48.520;-1.330;2024-02-21T12:13:46;6.32;;;2.85;;
48795;SDS011;34607;48.520;-1.330;2024-02-21T12:16:15;3.72;;;2.63;;
48795;SDS011;34607;48.520;-1.330;2024-02-21T12:18:43;8.13;;;2.83;;
48795;SDS011;34607;48.520;-1.330;2024-02-21T12:21:10;6.75;;;2.30;;
48795;SDS011;34607;48.520;-1.330;2024-02-21T12:23:39;5.13;;;2.38;;
48795;SDS011;34607;48.520;-1.330;2024-02-21T12:26:06;7.57;;;2.60;;
48795;SDS011;34607;48.520;-1.330;2024-02-21T12:28:33;4.70;;;2.15;;
48795;SDS011;34607;48.520;-1.330;2024-02-21T12:31:00;6.97;;;2.55;;
48795;SDS011;34607;48.520;-1.330;2024-02-21T12:33:29;6.75;;;2.38;;
48795;SDS011;34607;48.520;-1.330;2024-02-21T12:35:58;4.68;;;2.22;;
48795;SDS011;34607;48.520;-1.330;2024-02-21T12:38:25;4.53;;;2.20;;
48795;SDS011;34607;48.520;-1.330;2024-02-21T12:40:54;5.53;;;2.50;;
48795;SDS011;34607;48.520;-1.330;2024-02-21T12:43:22;4.97;;;2.10;;
48795;SDS011;34607;48.520;-1.330;2024-02-21T12:45:49;5.38;;;2.10;;
48795;SDS011;34607;48.520;-1.330;2024-02-21T12:48:16;8.82;;;3.03;;
48795;SDS011;34607;48.520;-1.330;2024-02-21T12:50:49;8.20;;;3.03;;
48795;SDS011;34607;48.520;-1.330;2024-02-21T12:53:17;7.10;;;2.70;;
48795;SDS011;34607;48.520;-1.330;2024-02-21T12:55:46;5.03;;;2.85;;
48795;SDS011;34607;48.520;-1.330;2024-02-21T12:58:15;9.10;;;3.20;;
48795;SDS011;34607;48.520;-1.330;2024-02-21T13:00:42;7.60;;;3.20;;
48795;SDS011;34607;48.520;-1.330;2024-02-21T13:03:09;6.85;;;2.60;;
48795;SDS011;34607;48.520;-1.330;2024-02-21T13:05:37;7.95;;;3.10;;
48795;SDS011;34607;48.520;-1.330;2024-02-21T13:08:05;5.00;;;2.70;;
48795;SDS011;34607;48.520;-1.330;2024-02-21T13:10:32;7.03;;;3.28;;
48795;SDS011;34607;48.520;-1.330;2024-02-21T13:13:00;5.75;;;2.83;;
48795;SDS011;34607;48.520;-1.330;2024-02-21T13:15:28;6.05;;;2.47;;
48795;SDS011;34607;48.520;-1.330;2024-02-21T13:17:55;11.82;;;3.50;;
48795;SDS011;34607;48.520;-1.330;2024-02-21T13:20:23;9.35;;;3.25;;
48795;SDS011;34607;48.520;-1.330;2024-02-21T13:22:50;5.70;;;3.13;;
48795;SDS011;34607;48.520;-1.330;2024-02-21T13:25:17;8.60;;;3.50;;
48795;SDS011;34607;48.520;-1.330;2024-02-21T13:27:46;9.32;;;3.17;;
48795;SDS011;34607;48.520;-1.330;2024-02-21T13:30:13;10.20;;;3.90;;
48795;SDS011;34607;48.520;-1.330;2024-02-21T13:32:44;7.57;;;2.90;;
48795;SDS011;34607;48.520;-1.330;2024-02-21T13:35:12;9.27;;;3.78;;
48795;SDS011;34607;48.520;-1.330;2024-02-21T13:37:40;8.27;;;3.25;;
48795;SDS011;34607;48.520;-1.330;2024-02-21T13:40:07;9.57;;;2.92;;
48795;SDS011;34607;48.520;-1.330;2024-02-21T13:42:35;6.95;;;3.10;;
48795;SDS011;34607;48.520;-1.330;2024-02-21T13:45:03;7.43;;;3.58;;
48795;SDS011;34607;48.520;-1.330;2024-02-21T13:47:31;5.28;;;2.92;;
48795;SDS011;34607;48.520;-1.330;2024-02-21T13:50:00;11.60;;;3.40;;
48795;SDS011;34607;48.520;-1.330;2024-02-21T13:52:27;9.43;;;3.22;;
48795;SDS011;34607;48.520;-1.330;2024-02-21T13:54:55;7.20;;;3.33;;
48795;SDS011;34607;48.520;-1.330;2024-02-21T13:57:22;7.53;;;3.10;;
48795;SDS011;34607;48.520;-1.330;2024-02-21T13:59:49;6.55;;;3.35;;
48795;SDS011;34607;48.520;-1.330;2024-02-21T14:02:16;10.63;;;3.92;;
48795;SDS011;34607;48.520;-1.330;2024-02-21T14:04:43;9.05;;;3.92;;
48795;SDS011;34607;48.520;-1.330;2024-02-21T14:07:12;11.63;;;3.78;;
48795;SDS011;34607;48.520;-1.330;2024-02-21T14:09:39;8.38;;;4.05;;
48795;SDS011;34607;48.520;-1.330;2024-02-21T14:12:06;10.25;;;3.50;;
48795;SDS011;34607;48.520;-1.330;2024-02-21T14:14:34;8.27;;;4.10;;
48795;SDS011;34607;48.520;-1.330;2024-02-21T14:17:02;8.75;;;3.15;;
48795;SDS011;34607;48.520;-1.330;2024-02-21T14:19:29;9.63;;;3.35;;
48795;SDS011;34607;48.520;-1.330;2024-02-21T14:21:57;8.48;;;4.25;;
48795;SDS011;34607;48.520;-1.330;2024-02-21T14:24:25;10.40;;;4.00;;
48795;SDS011;34607;48.520;-1.330;2024-02-21T14:26:53;9.07;;;3.33;;
48795;SDS011;34607;48.520;-1.330;2024-02-21T14:29:20;10.13;;;4.20;;
48795;SDS011;34607;48.520;-1.330;2024-02-21T14:31:47;9.55;;;4.10;;
48795;SDS011;34607;48.520;-1.330;2024-02-21T14:34:14;12.48;;;4.15;;
48795;SDS011;34607;48.520;-1.330;2024-02-21T14:36:41;8.85;;;4.00;;
48795;SDS011;34607;48.520;-1.330;2024-02-21T14:39:08;7.57;;;3.63;;
48795;SDS011;34607;48.520;-1.330;2024-02-21T14:41:37;6.47;;;2.80;;
48795;SDS011;34607;48.520;-1.330;2024-02-21T14:44:05;12.27;;;3.33;;
48795;SDS011;34607;48.520;-1.330;2024-02-21T14:46:36;8.70;;;2.95;;
48795;SDS011;34607;48.520;-1.330;2024-02-21T14:49:03;8.73;;;3.72;;
48795;SDS011;34607;48.520;-1.330;2024-02-21T14:51:30;8.68;;;3.55;;
48795;SDS011;34607;48.520;-1.330;2024-02-21T14:53:58;8.70;;;3.55;;
48795;SDS011;34607;48.520;-1.330;2024-02-21T14:56:25;8.57;;;2.88;;
48795;SDS011;34607;48.520;-1.330;2024-02-21T14:58:54;10.00;;;3.88;;
48795;SDS011;34607;48.520;-1.330;2024-02-21T15:01:21;9.60;;;3.80;;
48795;SDS011;34607;48.520;-1.330;2024-02-21T15:03:48;6.82;;;3.38;;
48795;SDS011;34607;48.520;-1.330;2024-02-21T15:06:16;7.32;;;2.97;;
48795;SDS011;34607;48.520;-1.330;2024-02-21T15:08:44;8.95;;;3.78;;
48795;SDS011;34607;48.520;-1.330;2024-02-21T15:11:11;8.70;;;3.35;;
48795;SDS011;34607;48.520;-1.330;2024-02-21T15:13:38;11.60;;;3.92;;
48795;SDS011;34607;48.520;-1.330;2024-02-21T15:16:06;11.70;;;4.00;;
48795;SDS011;34607;48.520;-1.330;2024-02-21T15:18:33;12.13;;;3.88;;
48795;SDS011;34607;48.520;-1.330;2024-02-21T15:21:03;12.45;;;4.00;;
48795;SDS011;34607;48.520;-1.330;2024-02-21T15:23:32;7.43;;;3.08;;
48795;SDS011;34607;48.520;-1.330;2024-02-21T15:25:59;8.15;;;3.38;;
48795;SDS011;34607;48.520;-1.330;2024-02-21T15:28:26;10.48;;;3.75;;
48795;SDS011;34607;48.520;-1.330;2024-02-21T15:30:54;7.53;;;2.83;;
48795;SDS011;34607;48.520;-1.330;2024-02-21T15:33:23;5.90;;;3.10;;
48795;SDS011;34607;48.520;-1.330;2024-02-21T15:35:52;6.30;;;2.75;;
48795;SDS011;34607;48.520;-1.330;2024-02-21T15:38:20;7.00;;;2.78;;
48795;SDS011;34607;48.520;-1.330;2024-02-21T15:40:47;8.93;;;3.30;;
48795;SDS011;34607;48.520;-1.330;2024-02-21T15:43:14;9.85;;;3.20;;
48795;SDS011;34607;48.520;-1.330;2024-02-21T15:45:42;4.25;;;2.22;;
48795;SDS011;34607;48.520;-1.330;2024-02-21T15:48:09;5.68;;;2.58;;
48795;SDS011;34607;48.520;-1.330;2024-02-21T15:50:37;8.00;;;2.95;;
48795;SDS011;34607;48.520;-1.330;2024-02-21T15:53:04;3.55;;;2.33;;
48795;SDS011;34607;48.520;-1.330;2024-02-21T15:55:31;6.20;;;2.08;;
48795;SDS011;34607;48.520;-1.330;2024-02-21T15:57:58;7.30;;;2.25;;
48795;SDS011;34607;48.520;-1.330;2024-02-21T16:00:26;7.18;;;2.20;;
48795;SDS011;34607;48.520;-1.330;2024-02-21T16:02:53;3.67;;;2.35;;
48795;SDS011;34607;48.520;-1.330;2024-02-21T16:05:20;5.82;;;2.70;;
48795;SDS011;34607;48.520;-1.330;2024-02-21T16:07:48;5.65;;;2.15;;
48795;SDS011;34607;48.520;-1.330;2024-02-21T16:10:16;4.60;;;1.90;;
48795;SDS011;34607;48.520;-1.330;2024-02-21T16:12:43;4.65;;;1.90;;
48795;SDS011;34607;48.520;-1.330;2024-02-21T16:15:10;4.35;;;1.90;;
48795;SDS011;34607;48.520;-1.330;2024-02-21T16:17:37;4.93;;;1.70;;
48795;SDS011;34607;48.520;-1.330;2024-02-21T16:20:05;5.47;;;2.15;;
48795;SDS011;34607;48.520;-1.330;2024-02-21T16:22:34;2.38;;;1.63;;
48795;SDS011;34607;48.520;-1.330;2024-02-21T16:25:03;2.78;;;2.08;;
48795;SDS011;34607;48.520;-1.330;2024-02-21T16:27:31;4.35;;;1.65;;
48795;SDS011;34607;48.520;-1.330;2024-02-21T16:29:58;3.70;;;1.90;;
48795;SDS011;34607;48.520;-1.330;2024-02-21T16:32:25;4.28;;;1.77;;
48795;SDS011;34607;48.520;-1.330;2024-02-21T16:34:53;3.80;;;1.48;;
48795;SDS011;34607;48.520;-1.330;2024-02-21T16:37:20;2.53;;;1.65;;
48795;SDS011;34607;48.520;-1.330;2024-02-21T16:39:47;2.83;;;1.30;;
48795;SDS011;34607;48.520;-1.330;2024-02-21T16:42:16;4.18;;;1.60;;
48795;SDS011;34607;48.520;-1.330;2024-02-21T16:44:43;2.03;;;1.27;;
48795;SDS011;34607;48.520;-1.330;2024-02-21T16:47:10;3.63;;;1.23;;
48795;SDS011;34607;48.520;-1.330;2024-02-21T16:49:37;1.83;;;1.35;;
48795;SDS011;34607;48.520;-1.330;2024-02-21T16:52:04;3.63;;;1.40;;
48795;SDS011;34607;48.520;-1.330;2024-02-21T16:54:32;3.45;;;1.38;;
48795;SDS011;34607;48.520;-1.330;2024-02-21T16:56:59;2.42;;;1.73;;
48795;SDS011;34607;48.520;-1.330;2024-02-21T16:59:27;2.22;;;1.30;;
48795;SDS011;34607;48.520;-1.330;2024-02-21T17:01:55;2.13;;;1.25;;
48795;SDS011;34607;48.520;-1.330;2024-02-21T17:04:22;2.92;;;1.60;;
48795;SDS011;34607;48.520;-1.330;2024-02-21T17:06:49;1.63;;;1.50;;
48795;SDS011;34607;48.520;-1.330;2024-02-21T17:09:16;2.95;;;1.38;;
48795;SDS011;34607;48.520;-1.330;2024-02-21T17:11:43;2.83;;;1.50;;
48795;SDS011;34607;48.520;-1.330;2024-02-21T17:14:10;4.03;;;1.40;;
48795;SDS011;34607;48.520;-1.330;2024-02-21T17:16:39;1.65;;;1.20;;
48795;SDS011;34607;48.520;-1.330;2024-02-21T17:19:08;1.77;;;1.10;;
48795;SDS011;34607;48.520;-1.330;2024-02-21T17:21:36;1.77;;;1.67;;
48795;SDS011;34607;48.520;-1.330;2024-02-21T17:24:04;2.88;;;1.42;;
48795;SDS011;34607;48.520;-1.330;2024-02-21T17:26:31;4.18;;;3.80;;
48795;SDS011;34607;48.520;-1.330;2024-02-21T17:28:59;8.25;;;5.57;;
48795;SDS011;34607;48.520;-1.330;2024-02-21T17:31:28;2.60;;;2.40;;
48795;SDS011;34607;48.520;-1.330;2024-02-21T17:33:57;2.90;;;2.20;;
48795;SDS011;34607;48.520;-1.330;2024-02-21T17:36:24;2.92;;;2.10;;
48795;SDS011;34607;48.520;-1.330;2024-02-21T17:38:51;3.63;;;3.33;;
48795;SDS011;34607;48.520;-1.330;2024-02-21T17:41:18;2.95;;;2.30;;
48795;SDS011;34607;48.520;-1.330;2024-02-21T17:43:45;4.72;;;4.32;;
48795;SDS011;34607;48.520;-1.330;2024-02-21T17:46:12;2.35;;;2.15;;
48795;SDS011;34607;48.520;-1.330;2024-02-21T17:48:39;2.08;;;1.98;;
48795;SDS011;34607;48.520;-1.330;2024-02-21T17:51:08;2.22;;;2.03;;
48795;SDS011;34607;48.520;-1.330;2024-02-21T17:53:35;2.58;;;1.73;;
48795;SDS011;34607;48.520;-1.330;2024-02-21T17:56:02;2.15;;;1.80;;
48795;SDS011;34607;48.520;-1.330;2024-02-21T17:58:30;3.85;;;2.33;;
48795;SDS011;34607;48.520;-1.330;2024-02-21T18:00:57;4.43;;;2.03;;
48795;SDS011;34607;48.520;-1.330;2024-02-21T18:03:26;2.78;;;2.47;;
48795;SDS011;34607;48.520;-1.330;2024-02-21T18:05:57;3.75;;;2.35;;
48795;SDS011;34607;48.520;-1.330;2024-02-21T18:08:27;2.92;;;1.80;;
48795;SDS011;34607;48.520;-1.330;2024-02-21T18:10:54;2.85;;;2.20;;
48795;SDS011;34607;48.520;-1.330;2024-02-21T18:13:21;3.60;;;2.00;;
48795;SDS011;34607;48.520;-1.330;2024-02-21T18:15:48;3.00;;;1.92;;
48795;SDS011;34607;48.520;-1.330;2024-02-21T18:18:16;1.95;;;1.60;;
48795;SDS011;34607;48.520;-1.330;2024-02-21T18:20:43;1.80;;;1.55;;
48795;SDS011;34607;48.520;-1.330;2024-02-21T18:23:10;2.45;;;1.58;;
48795;SDS011;34607;48.520;-1.330;2024-02-21T18:25:38;2.30;;;1.52;;
48795;SDS011;34607;48.520;-1.330;2024-02-21T18:28:06;2.97;;;1.80;;
48795;SDS011;34607;48.520;-1.330;2024-02-21T18:30:33;1.77;;;1.67;;
48795;SDS011;34607;48.520;-1.330;2024-02-21T18:33:00;2.28;;;1.70;;
48795;SDS011;34607;48.520;-1.330;2024-02-21T18:35:28;2.42;;;1.70;;
48795;SDS011;34607;48.520;-1.330;2024-02-21T18:37:56;3.10;;;2.13;;
48795;SDS011;34607;48.520;-1.330;2024-02-21T18:40:23;2.88;;;1.75;;
48795;SDS011;34607;48.520;-1.330;2024-02-21T18:42:52;3.33;;;2.00;;
48795;SDS011;34607;48.520;-1.330;2024-02-21T18:45:23;2.83;;;1.58;;
48795;SDS011;34607;48.520;-1.330;2024-02-21T18:47:50;2.25;;;1.70;;
48795;SDS011;34607;48.520;-1.330;2024-02-21T18:50:17;2.47;;;1.90;;
48795;SDS011;34607;48.520;-1.330;2024-02-21T18:52:44;2.20;;;1.80;;
48795;SDS011;34607;48.520;-1.330;2024-02-21T18:55:16;3.05;;;2.08;;
48795;SDS011;34607;48.520;-1.330;2024-02-21T18:57:43;2.65;;;1.98;;
48795;SDS011;34607;48.520;-1.330;2024-02-21T19:00:12;1.90;;;1.70;;
48795;SDS011;34607;48.520;-1.330;2024-02-21T19:02:44;1.83;;;1.73;;
48795;SDS011;34607;48.520;-1.330;2024-02-21T19:05:12;2.40;;;1.63;;
48795;SDS011;34607;48.520;-1.330;2024-02-21T19:07:39;2.25;;;2.03;;
48795;SDS011;34607;48.520;-1.330;2024-02-21T19:10:07;1.98;;;1.52;;
48795;SDS011;34607;48.520;-1.330;2024-02-21T19:12:34;2.47;;;2.28;;
48795;SDS011;34607;48.520;-1.330;2024-02-21T19:15:02;10.02;;;6.93;;
48795;SDS011;34607;48.520;-1.330;2024-02-21T19:17:31;3.58;;;1.70;;
48795;SDS011;34607;48.520;-1.330;2024-02-21T19:19:58;2.08;;;1.88;;
48795;SDS011;34607;48.520;-1.330;2024-02-21T19:22:25;6.50;;;4.57;;
48795;SDS011;34607;48.520;-1.330;2024-02-21T19:24:54;4.30;;;3.33;;
48795;SDS011;34607;48.520;-1.330;2024-02-21T19:27:22;4.82;;;3.90;;
48795;SDS011;34607;48.520;-1.330;2024-02-21T19:29:49;3.05;;;2.30;;
48795;SDS011;34607;48.520;-1.330;2024-02-21T19:32:16;4.63;;;3.13;;
48795;SDS011;34607;48.520;-1.330;2024-02-21T19:34:46;4.82;;;3.95;;
48795;SDS011;34607;48.520;-1.330;2024-02-21T19:37:13;2.92;;;2.67;;
48795;SDS011;34607;48.520;-1.330;2024-02-21T19:39:40;2.33;;;1.98;;
48795;SDS011;34607;48.520;-1.330;2024-02-21T19:42:07;2.72;;;2.25;;
48795;SDS011;34607;48.520;-1.330;2024-02-21T19:44:34;2.78;;;2.40;;
48795;SDS011;34607;48.520;-1.330;2024-02-21T19:47:01;2.25;;;1.90;;
48795;SDS011;34607;48.520;-1.330;2024-02-21T19:49:30;3.33;;;2.10;;
48795;SDS011;34607;48.520;-1.330;2024-02-21T19:51:59;2.20;;;2.00;;
48795;SDS011;34607;48.520;-1.330;2024-02-21T19:54:26;2.22;;;2.03;;
48795;SDS011;34607;48.520;-1.330;2024-02-21T19:56:53;2.42;;;2.22;;
48795;SDS011;34607;48.520;-1.330;2024-02-21T19:59:21;5.53;;;3.03;;
48795;SDS011;34607;48.520;-1.330;2024-02-21T20:01:48;3.00;;;2.40;;
48795;SDS011;34607;48.520;-1.330;2024-02-21T20:04:16;3.65;;;2.10;;
48795;SDS011;34607;48.520;-1.330;2024-02-21T20:06:43;1.80;;;1.70;;
48795;SDS011;34607;48.520;-1.330;2024-02-21T20:09:11;1.88;;;1.73;;
48795;SDS011;34607;48.520;-1.330;2024-02-21T20:11:38;1.67;;;1.58;;
48795;SDS011;34607;48.520;-1.330;2024-02-21T20:14:05;1.23;;;1.13;;
48795;SDS011;34607;48.520;-1.330;2024-02-21T20:16:33;2.15;;;1.45;;
48795;SDS011;34607;48.520;-1.330;2024-02-21T20:19:01;1.45;;;1.35;;
48795;SDS011;34607;48.520;-1.330;2024-02-21T20:21:28;1.60;;;1.50;;
48795;SDS011;34607;48.520;-1.330;2024-02-21T20:23:55;1.70;;;1.58;;
48795;SDS011;34607;48.520;-1.330;2024-02-21T20:26:25;2.03;;;1.40;;
48795;SDS011;34607;48.520;-1.330;2024-02-21T20:28:52;1.40;;;1.30;;
48795;SDS011;34607;48.520;-1.330;2024-02-21T20:31:19;1.50;;;1.40;;
48795;SDS011;34607;48.520;-1.330;2024-02-21T20:33:47;1.65;;;1.08;;
48795;SDS011;34607;48.520;-1.330;2024-02-21T20:36:15;1.27;;;1.20;;
48795;SDS011;34607;48.520;-1.330;2024-02-21T20:38:42;1.75;;;0.98;;
48795;SDS011;34607;48.520;-1.330;2024-02-21T20:41:15;1.40;;;1.30;;
48795;SDS011;34607;48.520;-1.330;2024-02-21T20:43:44;2.42;;;1.45;;
48795;SDS011;34607;48.520;-1.330;2024-02-21T20:46:12;1.20;;;1.10;;
48795;SDS011;34607;48.520;-1.330;2024-02-21T20:48:39;1.48;;;1.27;;
48795;SDS011;34607;48.520;-1.330;2024-02-21T20:51:07;2.63;;;1.52;;
48795;SDS011;34607;48.520;-1.330;2024-02-21T20:53:34;1.77;;;1.10;;
48795;SDS011;34607;48.520;-1.330;2024-02-21T20:56:03;1.20;;;1.10;;
48795;SDS011;34607;48.520;-1.330;2024-02-21T20:58:31;1.20;;;1.05;;
48795;SDS011;34607;48.520;-1.330;2024-02-21T21:00:59;1.83;;;1.30;;
48795;SDS011;34607;48.520;-1.330;2024-02-21T21:03:26;1.40;;;1.27;;
48795;SDS011;34607;48.520;-1.330;2024-02-21T21:05:53;2.20;;;1.10;;
48795;SDS011;34607;48.520;-1.330;2024-02-21T21:08:20;1.33;;;1.00;;
48795;SDS011;34607;48.520;-1.330;2024-02-21T21:10:48;1.33;;;1.23;;
48795;SDS011;34607;48.520;-1.330;2024-02-21T21:13:15;1.10;;;1.08;;
48795;SDS011;34607;48.520;-1.330;2024-02-21T21:15:42;1.10;;;1.00;;
48795;SDS011;34607;48.520;-1.330;2024-02-21T21:18:10;1.30;;;1.20;;
48795;SDS011;34607;48.520;-1.330;2024-02-21T21:20:37;1.30;;;1.20;;
48795;SDS011;34607;48.520;-1.330;2024-02-21T21:23:04;1.40;;;1.30;;
48795;SDS011;34607;48.520;-1.330;2024-02-21T21:25:31;2.17;;;1.23;;
48795;SDS011;34607;48.520;-1.330;2024-02-21T21:28:00;1.08;;;0.98;;
48795;SDS011;34607;48.520;-1.330;2024-02-21T21:30:29;1.80;;;1.20;;
48795;SDS011;34607;48.520;-1.330;2024-02-21T21:32:57;3.17;;;1.70;;
48795;SDS011;34607;48.520;-1.330;2024-02-21T21:35:26;1.52;;;1.42;;
48795;SDS011;34607;48.520;-1.330;2024-02-21T21:37:53;1.58;;;1.23;;
48795;SDS011;34607;48.520;-1.330;2024-02-21T21:40:21;1.23;;;1.17;;
48795;SDS011;34607;48.520;-1.330;2024-02-21T21:42:48;2.25;;;1.40;;
48795;SDS011;34607;48.520;-1.330;2024-02-21T21:45:16;1.65;;;1.20;;
48795;SDS011;34607;48.520;-1.330;2024-02-21T21:47:44;1.27;;;1.17;;
48795;SDS011;34607;48.520;-1.330;2024-02-21T21:50:11;1.30;;;1.13;;
48795;SDS011;34607;48.520;-1.330;2024-02-21T21:52:40;1.52;;;1.10;;
48795;SDS011;34607;48.520;-1.330;2024-02-21T21:55:07;1.52;;;1.35;;
48795;SDS011;34607;48.520;-1.330;2024-02-21T21:57:35;1.63;;;1.05;;
48795;SDS011;34607;48.520;-1.330;2024-02-21T22:00:02;1.13;;;1.00;;
48795;SDS011;34607;48.520;-1.330;2024-02-21T22:02:37;1.48;;;1.38;;
48795;SDS011;34607;48.520;-1.330;2024-02-21T22:05:05;1.30;;;1.20;;
48795;SDS011;34607;48.520;-1.330;2024-02-21T22:07:32;1.83;;;0.98;;
48795;SDS011;34607;48.520;-1.330;2024-02-21T22:10:01;1.40;;;1.30;;
48795;SDS011;34607;48.520;-1.330;2024-02-21T22:12:28;2.90;;;1.25;;
48795;SDS011;34607;48.520;-1.330;2024-02-21T22:14:55;1.85;;;1.38;;
48795;SDS011;34607;48.520;-1.330;2024-02-21T22:17:22;1.20;;;1.00;;
48795;SDS011;34607;48.520;-1.330;2024-02-21T22:19:49;1.05;;;0.95;;
48795;SDS011;34607;48.520;-1.330;2024-02-21T22:22:16;1.17;;;1.08;;
48795;SDS011;34607;48.520;-1.330;2024-02-21T22:24:43;1.67;;;0.90;;
48795;SDS011;34607;48.520;-1.330;2024-02-21T22:27:12;2.78;;;1.00;;
48795;SDS011;34607;48.520;-1.330;2024-02-21T22:29:39;1.42;;;0.98;;
48795;SDS011;34607;48.520;-1.330;2024-02-21T22:32:06;1.42;;;1.00;;
48795;SDS011;34607;48.520;-1.330;2024-02-21T22:34:34;1.38;;;0.85;;
48795;SDS011;34607;48.520;-1.330;2024-02-21T22:37:02;1.45;;;0.63;;
48795;SDS011;34607;48.520;-1.330;2024-02-21T22:39:29;2.13;;;0.85;;
48795;SDS011;34607;48.520;-1.330;2024-02-21T22:41:56;1.40;;;0.40;;
48795;SDS011;34607;48.520;-1.330;2024-02-21T22:44:25;2.17;;;0.50;;
48795;SDS011;34607;48.520;-1.330;2024-02-21T22:46:52;0.65;;;0.30;;
48795;SDS011;34607;48.520;-1.330;2024-02-21T22:49:19;1.48;;;0.47;;
48795;SDS011;34607;48.520;-1.330;2024-02-21T22:51:46;0.40;;;0.40;;
48795;SDS011;34607;48.520;-1.330;2024-02-21T22:54:13;0.73;;;0.50;;
48795;SDS011;34607;48.520;-1.330;2024-02-21T22:56:41;1.25;;;0.60;;
